createdAt,value
2017-09-15T00:02:11.429Z,8.90
2017-09-15T00:04:37.731Z,8.90
2017-09-15T00:07:04.083Z,8.90
2017-09-15T00:09:30.367Z,8.80
2017-09-15T00:11:56.673Z,8.70
2017-09-15T00:14:22.952Z,8.60
2017-09-15T00:16:49.241Z,8.50
2017-09-15T00:19:15.631Z,8.60
2017-09-15T00:21:41.838Z,8.60
2017-09-15T00:24:09.131Z,8.80
2017-09-15T00:26:35.440Z,8.80
2017-09-15T00:29:01.950Z,8.80
2017-09-15T00:31:28.255Z,8.90
2017-09-15T00:33:54.632Z,8.90
2017-09-15T00:36:20.896Z,9.00
2017-09-15T00:38:47.286Z,9.10
2017-09-15T00:41:13.618Z,9.10
2017-09-15T00:43:39.836Z,9.00
2017-09-15T00:46:06.045Z,9.10
2017-09-15T00:48:32.520Z,9.20
2017-09-15T00:50:58.832Z,9.40
2017-09-15T00:53:25.255Z,9.40
2017-09-15T00:55:52.245Z,9.40
2017-09-15T00:58:18.664Z,9.40
2017-09-15T01:00:44.991Z,9.40
2017-09-15T01:03:11.990Z,9.40
2017-09-15T01:05:38.375Z,9.40
2017-09-15T01:08:04.737Z,9.40
2017-09-15T01:10:30.968Z,9.40
2017-09-15T01:12:57.233Z,9.40
2017-09-15T01:15:23.513Z,9.40
2017-09-15T01:17:50.044Z,9.40
2017-09-15T01:20:16.368Z,9.50
2017-09-15T01:22:42.671Z,9.50
2017-09-15T01:25:08.884Z,9.40
2017-09-15T01:27:35.205Z,9.50
2017-09-15T01:30:01.505Z,9.50
2017-09-15T01:32:27.802Z,9.50
2017-09-15T01:34:54.228Z,9.50
2017-09-15T01:37:20.546Z,9.50
2017-09-15T01:39:46.923Z,9.50
2017-09-15T01:42:13.318Z,9.50
2017-09-15T01:44:40.207Z,9.40
2017-09-15T01:47:06.546Z,9.40
2017-09-15T01:49:32.831Z,9.30
2017-09-15T01:51:59.845Z,9.20
2017-09-15T01:54:26.137Z,9.20
2017-09-15T01:56:52.439Z,9.20
2017-09-15T01:59:19.618Z,9.10
2017-09-15T02:01:45.933Z,9.10
2017-09-15T02:04:12.275Z,9.00
2017-09-15T02:06:38.645Z,8.90
2017-09-15T02:09:04.949Z,8.90
2017-09-15T02:11:31.334Z,8.80
2017-09-15T02:13:58.486Z,8.90
2017-09-15T02:16:25.606Z,9.00
2017-09-15T02:18:52.110Z,8.90
2017-09-15T02:21:18.279Z,9.00
2017-09-15T02:23:44.549Z,9.20
2017-09-15T02:26:10.839Z,9.20
2017-09-15T02:28:37.154Z,9.20
2017-09-15T02:31:03.539Z,9.20
2017-09-15T02:33:30.717Z,9.20
2017-09-15T02:35:57.007Z,9.20
2017-09-15T02:38:24.252Z,9.30
2017-09-15T02:40:50.516Z,9.30
2017-09-15T02:43:16.957Z,9.30
2017-09-15T02:45:43.300Z,9.20
2017-09-15T02:48:09.601Z,9.20
2017-09-15T02:50:35.828Z,9.10
2017-09-15T02:53:02.811Z,9.00
2017-09-15T02:55:29.183Z,9.00
2017-09-15T02:57:55.416Z,9.00
2017-09-15T03:00:21.739Z,8.90
2017-09-15T03:02:48.040Z,9.10
2017-09-15T03:05:14.489Z,9.10
2017-09-15T03:07:40.787Z,9.10
2017-09-15T03:10:07.176Z,9.10
2017-09-15T03:12:33.607Z,9.10
2017-09-15T03:14:59.928Z,9.10
2017-09-15T03:17:26.158Z,9.00
2017-09-15T03:19:52.474Z,9.00
2017-09-15T03:22:18.705Z,9.00
2017-09-15T03:24:44.949Z,8.90
2017-09-15T03:27:11.317Z,8.80
2017-09-15T03:29:38.547Z,8.60
2017-09-15T03:32:04.921Z,8.50
2017-09-15T03:34:31.226Z,8.50
2017-09-15T03:36:57.586Z,8.40
2017-09-15T03:39:23.999Z,8.40
2017-09-15T03:41:50.290Z,8.30
2017-09-15T03:44:16.608Z,8.20
2017-09-15T03:46:42.970Z,8.10
2017-09-15T03:49:10.100Z,8.30
2017-09-15T03:51:36.432Z,8.30
2017-09-15T03:54:02.742Z,8.50
2017-09-15T03:56:29.117Z,8.50
2017-09-15T03:58:55.391Z,8.60
2017-09-15T04:01:21.760Z,8.60
2017-09-15T04:03:48.058Z,8.60
2017-09-15T04:06:14.417Z,8.80
2017-09-15T04:08:40.721Z,8.70
2017-09-15T04:11:07.080Z,8.80
2017-09-15T04:13:33.473Z,8.90
2017-09-15T04:15:59.867Z,8.80
2017-09-15T04:18:27.012Z,8.80
2017-09-15T04:20:53.334Z,8.80
2017-09-15T04:23:19.605Z,8.80
2017-09-15T04:25:45.984Z,8.80
2017-09-15T04:28:12.376Z,8.90
2017-09-15T04:30:38.805Z,9.00
2017-09-15T04:33:05.056Z,9.00
2017-09-15T04:35:31.350Z,9.00
2017-09-15T04:37:57.677Z,9.00
2017-09-15T04:40:24.074Z,9.00
2017-09-15T04:42:50.469Z,9.10
2017-09-15T04:45:16.918Z,9.00
2017-09-15T04:47:43.578Z,8.90
2017-09-15T04:50:09.967Z,9.00
2017-09-15T04:52:36.267Z,9.00
2017-09-15T04:55:02.550Z,9.00
2017-09-15T04:57:28.848Z,9.00
2017-09-15T04:59:55.215Z,9.10
2017-09-15T05:02:21.815Z,9.10
2017-09-15T05:04:49.126Z,9.10
2017-09-15T05:07:15.444Z,9.10
2017-09-15T05:09:41.836Z,9.10
2017-09-15T05:12:08.070Z,9.10
2017-09-15T05:14:35.376Z,9.20
2017-09-15T05:17:01.814Z,9.10
2017-09-15T05:19:28.050Z,9.20
2017-09-15T05:21:54.451Z,9.20
2017-09-15T05:24:20.798Z,9.30
2017-09-15T05:26:47.120Z,9.30
2017-09-15T05:29:13.544Z,9.20
2017-09-15T05:31:39.802Z,9.30
2017-09-15T05:34:06.207Z,9.40
2017-09-15T05:36:32.666Z,9.40
2017-09-15T05:38:58.956Z,9.40
2017-09-15T05:41:25.360Z,9.40
2017-09-15T05:43:51.868Z,9.40
2017-09-15T05:46:18.302Z,9.40
2017-09-15T05:48:44.686Z,9.40
2017-09-15T05:51:11.096Z,9.40
2017-09-15T05:53:37.415Z,9.50
2017-09-15T05:56:03.772Z,9.50
2017-09-15T05:58:30.247Z,9.60
2017-09-15T06:00:56.544Z,9.60
2017-09-15T06:03:23.690Z,9.70
2017-09-15T06:05:50.733Z,9.70
2017-09-15T06:08:17.054Z,9.60
2017-09-15T06:10:44.219Z,9.70
2017-09-15T06:13:10.611Z,9.70
2017-09-15T06:15:37.991Z,9.80
2017-09-15T06:18:04.469Z,9.90
2017-09-15T06:20:30.828Z,9.90
2017-09-15T06:22:57.087Z,10.00
2017-09-15T06:25:23.482Z,10.20
2017-09-15T06:27:49.844Z,10.30
2017-09-15T06:30:16.385Z,10.30
2017-09-15T06:32:42.766Z,10.30
2017-09-15T06:35:09.160Z,10.40
2017-09-15T06:37:36.276Z,10.30
2017-09-15T06:40:02.532Z,10.30
2017-09-15T06:42:29.004Z,10.30
2017-09-15T06:44:55.332Z,10.30
2017-09-15T06:47:21.719Z,10.30
2017-09-15T06:49:48.118Z,10.30
2017-09-15T06:52:14.527Z,10.30
2017-09-15T06:54:41.750Z,10.40
2017-09-15T06:57:08.346Z,10.30
2017-09-15T06:59:34.713Z,10.40
2017-09-15T07:02:01.116Z,10.50
2017-09-15T07:04:27.527Z,10.50
2017-09-15T07:06:53.871Z,10.60
2017-09-15T07:09:20.249Z,10.60
2017-09-15T07:11:46.866Z,10.60
2017-09-15T07:14:13.284Z,10.60
2017-09-15T07:16:39.660Z,10.70
2017-09-15T07:19:06.182Z,10.80
2017-09-15T07:21:32.497Z,10.90
2017-09-15T07:23:58.867Z,10.90
2017-09-15T07:26:25.295Z,10.90
2017-09-15T07:28:52.338Z,10.80
2017-09-15T07:31:18.790Z,10.80
2017-09-15T07:33:45.251Z,10.90
2017-09-15T07:36:11.643Z,10.90
2017-09-15T07:38:38.037Z,10.90
2017-09-15T07:41:04.418Z,11.00
2017-09-15T07:43:30.901Z,11.00
2017-09-15T07:45:57.296Z,11.00
2017-09-15T07:48:23.777Z,10.90
2017-09-15T07:50:50.129Z,10.80
2017-09-15T07:53:16.613Z,10.80
2017-09-15T07:55:42.964Z,10.80
2017-09-15T07:58:09.322Z,10.80
2017-09-15T08:00:35.629Z,10.80
2017-09-15T08:03:02.101Z,10.80
2017-09-15T08:05:29.380Z,10.80
2017-09-15T08:07:56.569Z,10.80
2017-09-15T08:10:22.971Z,10.80
2017-09-15T08:12:49.311Z,10.80
2017-09-15T08:15:15.793Z,10.90
2017-09-15T08:17:42.310Z,11.00
2017-09-15T08:20:08.663Z,11.00
2017-09-15T08:22:35.631Z,11.00
2017-09-15T08:25:02.804Z,11.20
2017-09-15T08:27:29.288Z,11.20
2017-09-15T08:29:55.905Z,11.40
2017-09-15T08:32:23.191Z,11.50
2017-09-15T08:34:49.661Z,11.70
2017-09-15T08:37:16.212Z,11.80
2017-09-15T08:39:42.710Z,11.90
2017-09-15T08:42:09.178Z,12.00
2017-09-15T08:44:35.721Z,12.10
2017-09-15T08:47:02.189Z,12.10
2017-09-15T08:49:29.911Z,11.90
2017-09-15T08:51:56.352Z,12.20
2017-09-15T08:54:23.006Z,12.40
2017-09-15T08:56:50.445Z,12.60
2017-09-15T08:59:17.069Z,12.70
2017-09-15T09:01:43.531Z,12.60
2017-09-15T09:04:09.953Z,12.60
2017-09-15T09:06:37.204Z,12.60
2017-09-15T09:09:03.619Z,12.70
2017-09-15T09:11:30.210Z,12.60
2017-09-15T09:13:56.601Z,12.60
2017-09-15T09:16:22.960Z,12.70
2017-09-15T09:18:49.629Z,12.80
2017-09-15T09:21:16.027Z,12.70
2017-09-15T09:23:44.124Z,12.80
2017-09-15T09:26:10.658Z,13.00
2017-09-15T09:28:37.072Z,13.20
2017-09-15T09:31:03.655Z,13.20
2017-09-15T09:33:30.051Z,13.30
2017-09-15T09:35:56.465Z,13.20
2017-09-15T09:38:22.891Z,13.20
2017-09-15T09:40:49.276Z,12.90
2017-09-15T09:43:15.660Z,13.00
2017-09-15T09:45:42.110Z,12.90
2017-09-15T09:48:08.603Z,13.10
2017-09-15T09:50:35.056Z,13.10
2017-09-15T09:53:01.559Z,12.80
2017-09-15T09:55:28.100Z,12.80
2017-09-15T09:57:54.676Z,12.80
2017-09-15T10:00:21.076Z,12.90
2017-09-15T10:02:48.345Z,12.80
2017-09-15T10:05:14.781Z,12.80
2017-09-15T10:07:41.221Z,12.60
2017-09-15T10:10:07.806Z,12.70
2017-09-15T10:12:34.394Z,12.80
2017-09-15T10:15:00.825Z,12.90
2017-09-15T10:17:28.518Z,13.10
2017-09-15T10:19:54.909Z,13.00
2017-09-15T10:22:21.424Z,13.10
2017-09-15T10:24:48.815Z,13.20
2017-09-15T10:27:15.379Z,13.00
2017-09-15T10:29:41.999Z,13.00
2017-09-15T10:32:08.449Z,13.10
2017-09-15T10:34:35.760Z,13.10
2017-09-15T10:37:03.300Z,13.30
2017-09-15T10:39:30.214Z,13.60
2017-09-15T10:41:56.600Z,13.60
2017-09-15T10:44:23.112Z,13.50
2017-09-15T10:46:50.281Z,13.40
2017-09-15T10:49:16.741Z,13.40
2017-09-15T10:51:43.294Z,13.40
2017-09-15T10:54:09.714Z,13.30
2017-09-15T10:56:36.319Z,13.30
2017-09-15T10:59:08.683Z,13.60
2017-09-15T11:01:35.189Z,14.10
2017-09-15T11:04:02.444Z,14.40
2017-09-15T11:06:28.955Z,14.30
2017-09-15T11:08:55.401Z,14.50
2017-09-15T11:11:22.284Z,14.60
2017-09-15T11:13:49.475Z,14.60
2017-09-15T11:16:15.956Z,14.60
2017-09-15T11:18:44.383Z,14.60
2017-09-15T11:21:10.768Z,14.50
2017-09-15T11:23:37.120Z,14.60
2017-09-15T11:26:04.361Z,14.60
2017-09-15T11:28:30.831Z,14.50
2017-09-15T11:30:58.527Z,14.60
2017-09-15T11:33:24.958Z,14.80
2017-09-15T11:35:51.389Z,14.90
2017-09-15T11:38:17.778Z,15.10
2017-09-15T11:40:44.189Z,15.30
2017-09-15T11:43:12.645Z,15.60
2017-09-15T11:45:39.100Z,15.30
2017-09-15T11:48:05.469Z,15.20
2017-09-15T11:50:31.925Z,15.00
2017-09-15T11:52:58.305Z,14.90
2017-09-15T11:55:25.528Z,14.70
2017-09-15T11:57:51.951Z,14.70
2017-09-15T12:00:18.360Z,14.80
2017-09-15T12:02:45.128Z,14.60
2017-09-15T12:05:11.663Z,14.60
2017-09-15T12:07:38.237Z,14.70
2017-09-15T12:10:04.728Z,15.40
2017-09-15T12:12:31.074Z,15.90
2017-09-15T12:14:57.688Z,16.50
2017-09-15T12:17:24.035Z,16.70
2017-09-15T12:19:50.406Z,17.20
2017-09-15T12:22:16.787Z,18.10
2017-09-15T12:24:43.887Z,17.00
2017-09-15T12:27:10.176Z,16.90
2017-09-15T12:29:36.565Z,16.40
2017-09-15T12:32:03.045Z,16.80
2017-09-15T12:34:29.463Z,17.20
2017-09-15T12:36:55.807Z,17.50
2017-09-15T12:39:22.220Z,16.80
2017-09-15T12:41:48.661Z,16.00
2017-09-15T12:44:15.051Z,16.30
2017-09-15T12:46:41.521Z,16.30
2017-09-15T12:49:07.815Z,16.20
2017-09-15T12:51:34.124Z,17.20
2017-09-15T12:54:00.477Z,18.30
2017-09-15T12:56:26.746Z,18.20
2017-09-15T12:58:53.915Z,19.20
2017-09-15T13:01:20.185Z,19.10
2017-09-15T13:03:46.558Z,19.40
2017-09-15T13:06:12.933Z,19.00
2017-09-15T13:08:39.236Z,18.20
2017-09-15T13:11:05.601Z,18.10
2017-09-15T13:13:31.959Z,18.80
2017-09-15T13:15:58.235Z,19.20
2017-09-15T13:18:24.678Z,19.30
2017-09-15T13:20:51.023Z,19.60
2017-09-15T13:23:17.361Z,19.80
2017-09-15T13:25:43.716Z,19.50
2017-09-15T13:28:10.042Z,19.70
2017-09-15T13:30:36.322Z,19.50
2017-09-15T13:33:02.621Z,19.40
2017-09-15T13:35:28.962Z,19.80
2017-09-15T13:37:56.154Z,19.80
2017-09-15T13:40:22.458Z,18.80
2017-09-15T13:42:48.862Z,18.70
2017-09-15T13:45:15.212Z,17.70
2017-09-15T13:47:41.489Z,16.80
2017-09-15T13:50:07.883Z,16.30
2017-09-15T13:52:34.219Z,16.30
2017-09-15T13:55:00.517Z,16.30
2017-09-15T13:57:26.888Z,16.30
2017-09-15T13:59:53.200Z,16.90
2017-09-15T14:02:19.535Z,17.00
2017-09-15T14:04:46.836Z,17.00
2017-09-15T14:07:13.178Z,17.00
2017-09-15T14:09:39.605Z,17.30
2017-09-15T14:12:06.029Z,17.00
2017-09-15T14:14:32.490Z,16.70
2017-09-15T14:16:58.907Z,16.50
2017-09-15T14:19:25.261Z,16.40
2017-09-15T14:21:51.636Z,16.50
2017-09-15T14:24:18.000Z,16.10
2017-09-15T14:26:44.307Z,15.70
2017-09-15T14:29:10.698Z,15.30
2017-09-15T14:31:37.792Z,15.20
2017-09-15T14:34:04.280Z,15.20
2017-09-15T14:36:31.433Z,15.40
2017-09-15T14:38:57.782Z,15.50
2017-09-15T14:41:24.180Z,15.60
2017-09-15T14:43:50.649Z,15.80
2017-09-15T14:46:17.846Z,16.30
2017-09-15T14:48:44.202Z,16.20
2017-09-15T14:51:10.541Z,17.10
2017-09-15T14:53:36.926Z,17.00
2017-09-15T14:56:03.297Z,16.20
2017-09-15T14:58:29.675Z,15.50
2017-09-15T15:00:56.079Z,14.70
2017-09-15T15:03:23.171Z,14.30
2017-09-15T15:05:49.559Z,14.30
2017-09-15T15:08:15.962Z,14.40
2017-09-15T15:10:42.308Z,14.50
2017-09-15T15:13:08.684Z,14.50
2017-09-15T15:15:34.995Z,14.20
2017-09-15T15:18:02.377Z,14.30
2017-09-15T15:20:28.744Z,14.30
2017-09-15T15:22:55.269Z,14.40
2017-09-15T15:25:21.929Z,14.00
2017-09-15T15:27:48.290Z,13.70
2017-09-15T15:30:15.478Z,13.70
2017-09-15T15:32:41.861Z,13.60
2017-09-15T15:35:09.142Z,13.50
2017-09-15T15:37:35.542Z,13.30
2017-09-15T15:40:01.986Z,13.40
2017-09-15T15:42:29.012Z,13.70
2017-09-15T15:44:55.483Z,13.70
2017-09-15T15:47:21.848Z,14.10
2017-09-15T15:49:48.267Z,14.30
2017-09-15T15:52:14.637Z,14.20
2017-09-15T15:54:41.247Z,14.10
2017-09-15T15:57:07.637Z,13.70
2017-09-15T15:59:34.843Z,13.10
2017-09-15T16:02:01.351Z,13.10
2017-09-15T16:04:27.706Z,12.90
2017-09-15T16:06:55.791Z,12.70
2017-09-15T16:09:22.240Z,12.50
2017-09-15T16:11:48.651Z,12.30
2017-09-15T16:14:15.059Z,12.20
2017-09-15T16:16:41.587Z,12.10
2017-09-15T16:19:08.558Z,11.90
2017-09-15T16:21:35.038Z,11.80
2017-09-15T16:24:02.162Z,11.70
2017-09-15T16:26:28.676Z,11.60
2017-09-15T16:28:55.136Z,11.70
2017-09-15T16:31:21.658Z,11.70
2017-09-15T16:33:48.444Z,11.70
2017-09-15T16:36:15.673Z,11.80
2017-09-15T16:38:48.110Z,11.80
2017-09-15T16:41:20.717Z,11.80
2017-09-15T16:43:53.225Z,11.80
2017-09-15T16:46:25.699Z,11.80
2017-09-15T16:48:58.822Z,11.70
2017-09-15T16:51:25.400Z,11.70
2017-09-15T16:53:51.890Z,11.70
2017-09-15T16:56:18.455Z,11.70
2017-09-15T16:58:44.889Z,11.60
2017-09-15T17:01:11.308Z,11.50
2017-09-15T17:03:39.516Z,11.40
2017-09-15T17:06:05.918Z,11.30
2017-09-15T17:08:33.751Z,11.20
2017-09-15T17:11:00.847Z,11.10
2017-09-15T17:13:27.368Z,11.10
2017-09-15T17:15:53.795Z,10.90
2017-09-15T17:18:20.312Z,10.80
2017-09-15T17:20:47.510Z,10.50
2017-09-15T17:23:13.916Z,10.40
2017-09-15T17:25:40.377Z,10.30
2017-09-15T17:28:06.845Z,10.20
2017-09-15T17:30:35.659Z,10.00
2017-09-15T17:33:02.840Z,9.80
2017-09-15T17:35:30.516Z,9.80
2017-09-15T17:37:56.949Z,9.70
2017-09-15T17:40:23.315Z,9.50
2017-09-15T17:42:49.730Z,9.30
2017-09-15T17:45:16.241Z,9.00
2017-09-15T17:47:46.922Z,8.90
2017-09-15T17:50:13.267Z,8.70
2017-09-15T17:52:39.693Z,8.40
2017-09-15T17:55:07.004Z,8.30
2017-09-15T17:57:35.457Z,8.10
2017-09-15T18:00:01.797Z,7.90
2017-09-15T18:02:28.198Z,7.70
2017-09-15T18:04:54.550Z,7.50
2017-09-15T18:07:20.995Z,7.40
2017-09-15T18:09:47.643Z,7.30
2017-09-15T18:12:14.012Z,7.30
2017-09-15T18:14:40.504Z,7.20
2017-09-15T18:17:07.046Z,7.10
2017-09-15T18:19:33.561Z,7.00
2017-09-15T18:22:00.662Z,6.90
2017-09-15T18:24:27.148Z,6.80
2017-09-15T18:26:53.621Z,6.80
2017-09-15T18:29:19.997Z,6.60
2017-09-15T18:31:46.290Z,6.40
2017-09-15T18:34:12.576Z,6.40
2017-09-15T18:36:39.360Z,6.30
2017-09-15T18:39:05.757Z,6.30
2017-09-15T18:41:32.423Z,6.20
2017-09-15T18:43:59.038Z,6.10
2017-09-15T18:46:25.834Z,6.10
2017-09-15T18:48:52.594Z,5.80
2017-09-15T18:51:18.931Z,5.70
2017-09-15T18:53:45.345Z,5.50
2017-09-15T18:56:11.934Z,5.50
2017-09-15T18:58:39.406Z,5.60
2017-09-15T19:01:05.795Z,5.50
2017-09-15T19:03:32.447Z,5.40
2017-09-15T19:05:58.923Z,5.40
2017-09-15T19:08:25.554Z,5.50
2017-09-15T19:10:51.924Z,5.50
2017-09-15T19:13:18.587Z,5.50
2017-09-15T19:15:45.320Z,5.40
2017-09-15T19:18:11.856Z,5.30
2017-09-15T19:20:39.100Z,5.30
2017-09-15T19:23:05.549Z,5.30
2017-09-15T19:25:32.641Z,5.10
2017-09-15T19:27:59.444Z,5.10
2017-09-15T19:30:25.884Z,5.00
2017-09-15T19:32:52.858Z,5.10
2017-09-15T19:35:20.017Z,5.10
2017-09-15T19:37:47.282Z,5.10
2017-09-15T19:40:13.954Z,5.10
2017-09-15T19:42:40.386Z,5.00
2017-09-15T19:45:07.192Z,4.80
2017-09-15T19:47:34.299Z,4.70
2017-09-15T19:50:01.216Z,4.70
2017-09-15T19:52:28.607Z,4.70
2017-09-15T19:54:55.447Z,4.60
2017-09-15T19:57:21.850Z,4.60
2017-09-15T19:59:48.879Z,4.50
2017-09-15T20:02:15.510Z,4.50
2017-09-15T20:04:41.897Z,4.40
2017-09-15T20:07:08.510Z,4.30
2017-09-15T20:09:34.945Z,4.20
2017-09-15T20:12:02.406Z,4.10
2017-09-15T20:14:28.794Z,4.10
2017-09-15T20:16:55.248Z,4.00
2017-09-15T20:19:21.962Z,4.10
2017-09-15T20:21:48.365Z,4.00
2017-09-15T20:24:14.811Z,4.10
2017-09-15T20:26:41.716Z,4.10
2017-09-15T20:29:08.242Z,4.00
2017-09-15T20:31:35.388Z,3.90
2017-09-15T20:34:02.014Z,3.90
2017-09-15T20:36:28.521Z,3.90
2017-09-15T20:38:55.018Z,3.80
2017-09-15T20:41:21.470Z,3.70
2017-09-15T20:43:48.300Z,3.50
2017-09-15T20:46:15.419Z,3.70
2017-09-15T20:48:42.576Z,4.30
2017-09-15T20:51:09.214Z,4.30
2017-09-15T20:53:35.660Z,4.20
2017-09-15T20:56:02.163Z,4.00
2017-09-15T20:58:29.690Z,4.00
2017-09-15T21:00:56.808Z,3.90
2017-09-15T21:03:23.286Z,3.90
2017-09-15T21:05:49.874Z,3.90
2017-09-15T21:08:16.231Z,4.30
2017-09-15T21:10:42.522Z,4.40
2017-09-15T21:13:08.872Z,4.40
2017-09-15T21:15:35.208Z,4.20
2017-09-15T21:18:01.601Z,4.50
2017-09-15T21:20:28.007Z,4.40
2017-09-15T21:22:54.390Z,4.50
2017-09-15T21:25:20.846Z,4.40
2017-09-15T21:27:51.250Z,4.50
2017-09-15T21:30:17.602Z,4.40
2017-09-15T21:32:44.955Z,4.60
2017-09-15T21:35:12.066Z,4.60
2017-09-15T21:37:39.671Z,4.50
2017-09-15T21:40:06.196Z,4.60
2017-09-15T21:42:32.580Z,4.60
2017-09-15T21:45:00.127Z,4.40
2017-09-15T21:47:26.522Z,4.30
2017-09-15T21:49:53.332Z,4.10
2017-09-15T21:52:20.296Z,4.10
2017-09-15T21:54:46.896Z,4.00
2017-09-15T21:57:13.264Z,3.90
2017-09-15T21:59:40.021Z,3.90
2017-09-15T22:02:06.694Z,3.80
2017-09-15T22:04:39.093Z,3.90
2017-09-15T22:07:06.618Z,3.90
2017-09-15T22:09:36.970Z,3.90
2017-09-15T22:12:03.332Z,3.80
2017-09-15T22:14:30.249Z,3.80
2017-09-15T22:16:56.686Z,3.80
2017-09-15T22:19:23.348Z,3.70
2017-09-15T22:21:49.735Z,3.60
2017-09-15T22:24:19.272Z,3.50
2017-09-15T22:26:46.496Z,3.60
2017-09-15T22:29:12.803Z,3.60
2017-09-15T22:31:39.173Z,3.60
2017-09-15T22:34:05.578Z,3.50
2017-09-15T22:36:31.883Z,3.50
2017-09-15T22:38:58.342Z,3.40
2017-09-15T22:41:24.691Z,3.40
2017-09-15T22:43:51.059Z,3.30
2017-09-15T22:46:17.413Z,3.30
2017-09-15T22:48:43.707Z,3.40
2017-09-15T22:51:10.147Z,3.30
2017-09-15T22:53:36.463Z,3.20
2017-09-15T22:56:03.177Z,3.40
2017-09-15T22:58:29.491Z,3.30
2017-09-15T23:00:57.412Z,3.30
2017-09-15T23:03:23.710Z,3.30
2017-09-15T23:05:50.837Z,3.30
2017-09-15T23:08:17.131Z,3.30
2017-09-15T23:10:43.470Z,3.20
2017-09-15T23:13:09.810Z,3.10
2017-09-15T23:15:36.129Z,3.10
2017-09-15T23:18:03.853Z,2.90
2017-09-15T23:20:30.390Z,2.90
2017-09-15T23:22:57.483Z,2.80
2017-09-15T23:25:24.729Z,2.90
2017-09-15T23:27:51.137Z,2.80
2017-09-15T23:30:17.514Z,2.80
2017-09-15T23:32:43.817Z,3.00
2017-09-15T23:35:10.144Z,2.90
2017-09-15T23:37:36.679Z,2.90
2017-09-15T23:40:03.070Z,2.80
2017-09-15T23:42:29.396Z,2.80
2017-09-15T23:44:56.494Z,2.70
2017-09-15T23:47:22.880Z,2.60
2017-09-15T23:49:49.221Z,2.60
2017-09-15T23:52:15.569Z,2.60
2017-09-15T23:54:41.980Z,2.50
2017-09-15T23:57:09.143Z,2.40
2017-09-15T23:59:35.434Z,2.30
